Terminal Aerodrome Forecast
Issued by NWS

Home | Current Version | Previous Version | Text Only | Print | Product List | Glossary On
Versions: 1 2 3 4 5 6 7 8 9 10 11 12 13 14 15 16 17 18 19 20
000
FTUS42 KILM 031139
TAFCRE
TAF
KCRE 031139Z 0312/0412 19008KT P6SM VCSH BKN035 OVC080
      TEMPO 0312/0315 4SM SHRA BKN025
     FM031600 20012G18KT P6SM VCTS SCT025CB BKN080
      TEMPO 0317/0320 VRB20G30KT 3SM TSRA BKN020CB
     FM032000 19012G20KT P6SM SCT020 BKN120
     FM040100 20009KT P6SM VCSH BKN025 BKN120
     FM040600 19009KT 5SM -SHRA BKN025 BKN080=

USA.gov is the U.S. government's official web portal to all federal, state and local government web resources and services.